Home > Products > Valid Products > TAF

000
FTUS46 KHNX 040520
TAFMCE
TAF
KMCE 040520Z 0406/0506 27005KT P6SM SKC
     FM041000 VRB04KT P6SM SCT250
     FM041600 33008KT P6SM SCT250
     FM050500 28006KT P6SM SCT250=



000
FTUS46 KHNX 040520
TAFFAT
TAF
KFAT 040520Z 0406/0506 30009KT P6SM SKC
     FM041100 32007KT P6SM SCT250
     FM050200 30010KT P6SM SCT250=



000
FTUS46 KHNX 040520
TAFBFL
TAF
KBFL 040520Z 0406/0506 VRB03KT P6SM SKC
     FM041900 30008KT P6SM FEW250
     FM050300 35007KT P6SM SCT250=



000
FTUS46 KHNX 032320
TAFMCE
TAF
KMCE 032320Z 0400/0424 30009KT P6SM FEW250
     FM041200 VRB04KT P6SM SCT250=



000
FTUS46 KHNX 032320
TAFFAT
TAF
KFAT 032320Z 0400/0424 30008KT P6SM FEW080 FEW250
     FM041100 32003KT P6SM SCT250=



000
FTUS46 KHNX 032320
TAFBFL
TAF
KBFL 032320Z 0400/0424 31009KT P6SM SKC
     FM041100 35007KT P6SM FEW250=



000
FTUS46 KHNX 031730
TAFMCE
TAF
KMCE 031730Z 0318/0418 32007KT P6SM SKC
     FM040000 33011KT P6SM FEW250
     FM041200 VRB04KT P6SM SCT250=



000
FTUS46 KHNX 031730
TAFFAT
TAF
KFAT 031730Z 0318/0418 30008KT P6SM FEW250
     FM040100 31012KT P6SM SCT250
     FM041100 32006KT P6SM SCT250=



000
FTUS46 KHNX 031730
TAFBFL
TAF
KBFL 031730Z 0318/0418 31005KT P6SM SKC
     FM032000 33012G17KT P6SM FEW250
     FM041100 35007KT P6SM FEW250=



000
FTUS46 KHNX 031730
TAFMCE
TAF
KMCE 031730Z 0318/0418 32007KT P6SM SKC
     FM040000 33011KT P6SM FEW250
     FM041200 VRB04KT P6SM SCT250=



000
FTUS46 KHNX 031730
TAFFAT
TAF
KFAT 031730Z 0318/0418 30008KT P6SM FEW250
     FM040100 31012KT P6SM SCT250
     FM041100 32006KT P6SM SCT250=



000
FTUS46 KHNX 031730
TAFBFL
TAF
KBFL 031730Z 0318/0418 31005KT P6SM SKC
     FM032000 33012G17KT P6SM FEW250
     FM041100 35007KT P6SM FEW250=



000
FTUS46 KHNX 031154
TAFBFL
TAF
KBFL 031154Z 0312/0412 VRB04KT P6SM SKC
     FM032000 30012G17KT P6SM FEW250
     FM040400 35007KT P6SM FEW250=



000
FTUS46 KHNX 031154
TAFMCE
TAF
KMCE 031154Z 0312/0412 VRB03KT P6SM SKC
     FM032000 27008KT P6SM FEW250
     FM040100 33010KT P6SM FEW250
     FM040600 29005KT P6SM SCT250=



000
FTUS46 KHNX 031154
TAFFAT
TAF
KFAT 031154Z 0312/0412 VRB04KT P6SM SKC
     FM032100 30008KT P6SM FEW250
     FM040100 31012KT P6SM SCT250
     FM041000 32006KT P6SM SCT250=



000
FTUS46 KHNX 031154
TAFBFL
TAF
KBFL 031154Z 0312/0412 VRB04KT P6SM SKC
     FM032000 30012G17KT P6SM FEW250
     FM040400 35007KT P6SM FEW250=



000
FTUS46 KHNX 031154
TAFMCE
TAF
KMCE 031154Z 0312/0412 VRB03KT P6SM SKC
     FM032000 27008KT P6SM FEW250
     FM040100 33010KT P6SM FEW250
     FM040600 29005KT P6SM SCT250=



000
FTUS46 KHNX 031154
TAFFAT
TAF
KFAT 031154Z 0312/0412 VRB04KT P6SM SKC
     FM032100 30008KT P6SM FEW250
     FM040100 31012KT P6SM SCT250
     FM041000 32006KT P6SM SCT250=



000
FTUS46 KHNX 030520
TAFMCE
TAF
KMCE 030520Z 0306/0406 30007KT P6SM FEW250
     FM031500 VRB03KT P6SM SKC
     FM032000 27008KT P6SM FEW250
     FM040100 33008KT P6SM FEW250=



000
FTUS46 KHNX 030520
TAFFAT
TAF
KFAT 030520Z 0306/0406 30013KT P6SM SKC
     FM031200 VRB04KT P6SM SKC
     FM032100 30008KT P6SM FEW250=



000
FTUS46 KHNX 030520
TAFMCE
TAF
KMCE 030520Z 0306/0406 30007KT P6SM FEW250
     FM031500 VRB03KT P6SM SKC
     FM032000 27008KT P6SM FEW250
     FM040100 33008KT P6SM FEW250=



000
FTUS46 KHNX 030520
TAFBFL
TAF
KBFL 030520Z 0306/0406 34007KT P6SM SKC
     FM031100 VRB04KT P6SM SKC
     FM032000 30010G15KT P6SM FEW250
     FM040400 35007KT P6SM FEW250=



000
FTUS46 KHNX 030520
TAFFAT
TAF
KFAT 030520Z 0306/0406 30013KT P6SM SKC
     FM031200 VRB04KT P6SM SKC
     FM032100 30008KT P6SM FEW250=



000
FTUS46 KHNX 030520
TAFBFL
TAF
KBFL 030520Z 0306/0406 34007KT P6SM SKC
     FM031100 VRB04KT P6SM SKC
     FM032000 30010G15KT P6SM FEW250
     FM040400 35007KT P6SM FEW250=



000
FTUS46 KHNX 030203 AAA
TAFMCE
TAF AMD
KMCE 030203Z 0302/0324 33010KT P6SM FEW250
     FM030800 30005KT P6SM FEW250=



000
FTUS46 KHNX 022320
TAFMCE
TAF
KMCE 022320Z 0300/0324 30010KT P6SM FEW250
     FM030800 30005KT P6SM FEW250=



000
FTUS46 KHNX 022320
TAFMCE
TAF
KMCE 022320Z 0300/0324 30010KT P6SM FEW250
     FM030800 30005KT P6SM FEW250=



000
FTUS46 KHNX 022320
TAFFAT
TAF
KFAT 022320Z 0300/0324 28007KT P6SM FEW250
     FM030200 31011KT P6SM FEW250
     FM031000 30006KT P6SM FEW250=



000
FTUS46 KHNX 022320
TAFFAT
TAF
KFAT 022320Z 0300/0324 28007KT P6SM FEW250
     FM030200 31011KT P6SM FEW250
     FM031000 30006KT P6SM FEW250=



000
FTUS46 KHNX 022320
TAFBFL
TAF
KBFL 022320Z 0300/0324 31010KT P6SM FEW250
     FM030300 32005KT P6SM FEW250
     FM032000 30010G15KT P6SM FEW250=



000
FTUS46 KHNX 022320
TAFBFL
TAF
KBFL 022320Z 0300/0324 31010KT P6SM FEW250
     FM030300 32005KT P6SM FEW250
     FM032000 30010G15KT P6SM FEW250=



000
FTUS46 KHNX 021733
TAFMCE
TAF
KMCE 021733Z 0218/0318 31007KT P6SM FEW250
     FM030100 33010G16KT P6SM FEW250
     FM030800 32006KT P6SM FEW250=



000
FTUS46 KHNX 021733
TAFBFL
TAF
KBFL 021733Z 0218/0318 31012G18KT P6SM FEW250
     FM030200 32007KT P6SM FEW250=



000
FTUS46 KHNX 021733
TAFFAT
TAF
KFAT 021733Z 0218/0318 27005KT P6SM FEW250
     FM030100 31011KT P6SM FEW250
     FM031000 31006KT P6SM FEW250=



000
FTUS46 KHNX 021121
TAFBFL
TAF
KBFL 021121Z 0212/0312 VRB04KT P6SM SCT250
     FM022100 31010KT P6SM SCT250
     FM030600 36005KT P6SM SCT250=



000
FTUS46 KHNX 021121
TAFMCE
TAF
KMCE 021121Z 0212/0312 30006KT P6SM SCT250
     FM022200 32010G16KT P6SM SCT250
     FM030600 31006KT P6SM SCT250=



000
FTUS46 KHNX 021121
TAFFAT
TAF
KFAT 021121Z 0212/0312 VRB04KT P6SM SCT250
     FM030000 31011KT P6SM SCT250
     FM030900 30005KT P6SM SCT250=



000
FTUS46 KHNX 021121
TAFMCE
TAF
KMCE 021121Z 0212/0312 30006KT P6SM SCT250
     FM022200 32010G16KT P6SM SCT250
     FM030600 31006KT P6SM SCT250=



000
FTUS46 KHNX 021121
TAFFAT
TAF
KFAT 021121Z 0212/0312 VRB04KT P6SM SCT250
     FM030000 31011KT P6SM SCT250
     FM030900 30005KT P6SM SCT250=



000
FTUS46 KHNX 021121
TAFBFL
TAF
KBFL 021121Z 0212/0312 VRB04KT P6SM SCT250
     FM022100 31010KT P6SM SCT250
     FM030600 36005KT P6SM SCT250=



000
FTUS46 KHNX 020523
TAFFAT
TAF
KFAT 020523Z 0206/0306 32008KT P6SM FEW130 SCT200
     FM021100 VRB04KT P6SM SCT250
     FM022200 31008KT P6SM BKN250=



000
FTUS46 KHNX 020523
TAFMCE
TAF
KMCE 020523Z 0206/0306 29008KT P6SM FEW250
     FM021000 VRB04KT P6SM SCT250
     FM021900 32008KT P6SM SCT250=



000
FTUS46 KHNX 020523
TAFMCE
TAF
KMCE 020523Z 0206/0306 29008KT P6SM FEW250
     FM021000 VRB04KT P6SM SCT250
     FM021900 32008KT P6SM SCT250=



000
FTUS46 KHNX 020523
TAFBFL
TAF
KBFL 020523Z 0206/0306 32008KT P6SM FEW250
     FM020900 VRB04KT P6SM BKN250
     FM022000 31010KT P6SM BKN250=



000
FTUS46 KHNX 020523
TAFFAT
TAF
KFAT 020523Z 0206/0306 32008KT P6SM FEW130 SCT200
     FM021100 VRB04KT P6SM SCT250
     FM022200 31008KT P6SM BKN250=



000
FTUS46 KHNX 020523
TAFBFL
TAF
KBFL 020523Z 0206/0306 32008KT P6SM FEW250
     FM020900 VRB04KT P6SM BKN250
     FM022000 31010KT P6SM BKN250=



000
FTUS46 KHNX 012320
TAFBFL
TAF
KBFL 012320Z 0200/0224 30009KT P6SM SKC
     FM020300 34008KT P6SM SCT250
     FM020900 VRB04KT P6SM BKN250
     FM022000 30010KT P6SM BKN250=



000
FTUS46 KHNX 012320
TAFFAT
TAF
KFAT 012320Z 0200/0224 31007KT P6SM SKC
     FM020900 VRB04KT P6SM SCT250
     FM022200 31007KT P6SM BKN250=



000
FTUS46 KHNX 012320
TAFMCE
TAF
KMCE 012320Z 0200/0224 32007KT P6SM SKC
     FM021200 VRB04KT P6SM SCT250
     FM021900 32007KT P6SM SCT250=



000
FTUS46 KHNX 011720
TAFFAT
TAF
KFAT 011720Z 0118/0218 VRB04KT P6SM SKC
     FM012300 31007KT P6SM SKC
     FM020900 VRB04KT P6SM SCT250=



000
FTUS46 KHNX 011720
TAFBFL
TAF
KBFL 011720Z 0118/0218 VRB04KT P6SM SKC
     FM012000 30009KT P6SM SKC
     FM020300 34008KT P6SM SCT250
     FM020900 VRB04KT P6SM BKN250=



000
FTUS46 KHNX 011720
TAFFAT
TAF
KFAT 011720Z 0118/0218 VRB04KT P6SM SKC
     FM012300 31007KT P6SM SKC
     FM020900 VRB04KT P6SM SCT250=



000
FTUS46 KHNX 011720
TAFMCE
TAF
KMCE 011720Z 0118/0218 VRB04KT P6SM SKC
     FM012000 32007KT P6SM SKC
     FM021200 VRB04KT P6SM SCT250=



000
FTUS46 KHNX 011720
TAFMCE
TAF
KMCE 011720Z 0118/0218 VRB04KT P6SM SKC
     FM012000 32007KT P6SM SKC
     FM021200 VRB04KT P6SM SCT250=



000
FTUS46 KHNX 011720
TAFBFL
TAF
KBFL 011720Z 0118/0218 VRB04KT P6SM SKC
     FM012000 30009KT P6SM SKC
     FM020300 34008KT P6SM SCT250
     FM020900 VRB04KT P6SM BKN250=



000
FTUS46 KHNX 011120
TAFMCE
TAF
KMCE 011120Z 0112/0212 32008KT P6SM SKC=



000
FTUS46 KHNX 011120
TAFFAT
TAF
KFAT 011120Z 0112/0212 31007KT P6SM SKC=



000
FTUS46 KHNX 011120
TAFMCE
TAF
KMCE 011120Z 0112/0212 32008KT P6SM SKC=



000
FTUS46 KHNX 011120
TAFBFL
TAF
KBFL 011120Z 0112/0212 35006KT P6SM SKC=



000
FTUS46 KHNX 011120
TAFBFL
TAF
KBFL 011120Z 0112/0212 35006KT P6SM SKC=



000
FTUS46 KHNX 011120
TAFFAT
TAF
KFAT 011120Z 0112/0212 31007KT P6SM SKC=



    US Dept of Commerce
    National Oceanic and Atmospheric Administration
    National Weather Service
    1325 East West Highway
    Silver Spring, MD 20910
    Page Author: NWS Internet Services Team
Disclaimer
Information Quality
Credits
Glossary
Privacy Policy
Freedom of Information Act (FOIA)
About Us
Career Opportunities